createdAt,value
2018-06-15T00:00:23.891Z,84.38
2018-06-15T00:02:57.559Z,84.23
2018-06-15T00:05:25.947Z,84.17
2018-06-15T00:07:54.315Z,83.69
2018-06-15T00:10:22.725Z,82.92
2018-06-15T00:12:51.242Z,83.50
2018-06-15T00:15:19.680Z,82.29
2018-06-15T00:17:48.062Z,83.46
2018-06-15T00:20:16.467Z,83.12
2018-06-15T00:22:44.911Z,84.53
2018-06-15T00:25:13.415Z,83.00
2018-06-15T00:27:41.941Z,83.36
2018-06-15T00:30:10.323Z,82.90
2018-06-15T00:32:38.743Z,84.38
2018-06-15T00:35:07.255Z,83.66
2018-06-15T00:37:35.635Z,85.02
2018-06-15T00:40:04.123Z,86.10
2018-06-15T00:42:32.510Z,86.38
2018-06-15T00:45:00.885Z,87.80
2018-06-15T00:47:29.312Z,89.08
2018-06-15T00:49:57.687Z,88.84
2018-06-15T00:52:26.264Z,88.89
2018-06-15T00:54:54.630Z,89.26
2018-06-15T00:57:34.108Z,89.86
2018-06-15T01:00:02.473Z,88.94
2018-06-15T01:02:30.866Z,88.57
2018-06-15T01:04:59.259Z,89.94
2018-06-15T01:07:27.651Z,89.05
2018-06-15T01:09:56.499Z,87.56
2018-06-15T01:15:05.123Z,87.01
2018-06-15T01:17:33.506Z,86.30
2018-06-15T01:20:01.963Z,85.15
2018-06-15T01:22:30.431Z,85.52
2018-06-15T01:24:58.815Z,85.98
2018-06-15T01:27:27.383Z,86.46
2018-06-15T01:29:55.808Z,86.56
2018-06-15T01:32:24.291Z,86.35
2018-06-15T01:34:52.834Z,85.96
2018-06-15T01:37:21.219Z,85.77
2018-06-15T01:39:49.913Z,85.56
2018-06-15T01:42:18.424Z,85.44
2018-06-15T01:44:46.862Z,85.22
2018-06-15T01:47:15.423Z,84.95
2018-06-15T01:49:43.910Z,85.79
2018-06-15T01:52:12.735Z,84.98
2018-06-15T01:54:41.199Z,85.79
2018-06-15T01:57:09.683Z,85.15
2018-06-15T01:59:38.184Z,85.20
2018-06-15T02:02:06.563Z,85.09
2018-06-15T02:04:35.381Z,84.37
2018-06-15T02:07:03.871Z,85.87
2018-06-15T02:09:32.343Z,85.78
2018-06-15T02:12:00.833Z,85.82
2018-06-15T02:14:29.314Z,85.09
2018-06-15T02:16:57.847Z,84.59
2018-06-15T02:19:26.336Z,85.38
2018-06-15T02:21:54.896Z,84.39
2018-06-15T02:24:23.451Z,84.61
2018-06-15T02:26:52.058Z,84.16
2018-06-15T02:29:20.755Z,84.85
2018-06-15T02:31:49.396Z,85.15
2018-06-15T02:34:17.795Z,84.54
2018-06-15T02:36:46.237Z,84.73
2018-06-15T02:39:14.667Z,84.47
2018-06-15T02:41:43.800Z,85.06
2018-06-15T02:44:12.256Z,85.30
2018-06-15T02:46:40.774Z,86.02
2018-06-15T02:49:09.263Z,86.07
2018-06-15T02:51:37.785Z,85.62
2018-06-15T02:54:06.735Z,85.95
2018-06-15T02:56:35.482Z,85.38
2018-06-15T02:59:04.044Z,85.15
2018-06-15T03:01:32.474Z,84.51
2018-06-15T03:04:00.928Z,85.01
2018-06-15T03:06:29.662Z,85.95
2018-06-15T03:08:58.067Z,86.17
2018-06-15T03:11:26.480Z,85.86
2018-06-15T03:13:55.027Z,85.76
2018-06-15T03:16:23.537Z,86.28
2018-06-15T03:18:52.179Z,85.85
2018-06-15T03:21:20.587Z,85.91
2018-06-15T03:23:49.003Z,86.31
2018-06-15T03:26:17.494Z,85.07
2018-06-15T03:28:46.035Z,84.51
2018-06-15T03:31:14.873Z,85.29
2018-06-15T03:33:43.379Z,85.58
2018-06-15T03:36:11.803Z,85.24
2018-06-15T03:38:40.287Z,85.53
2018-06-15T03:41:08.735Z,84.36
2018-06-15T03:43:37.419Z,86.51
2018-06-15T03:46:06.244Z,85.86
2018-06-15T03:48:34.755Z,85.58
2018-06-15T03:51:03.284Z,85.42
2018-06-15T03:53:31.724Z,85.99
2018-06-15T03:56:00.321Z,86.80
2018-06-15T03:58:28.856Z,86.29
2018-06-15T04:00:57.311Z,86.30
2018-06-15T04:03:26.080Z,87.07
2018-06-15T04:05:54.772Z,88.20
2018-06-15T04:08:23.544Z,87.20
2018-06-15T04:10:51.944Z,87.51
2018-06-15T04:13:20.788Z,86.70
2018-06-15T04:15:49.401Z,85.68
2018-06-15T04:18:17.807Z,85.27
2018-06-15T04:20:46.671Z,85.78
2018-06-15T04:23:15.115Z,85.89
2018-06-15T04:25:43.571Z,84.83
2018-06-15T04:28:12.005Z,84.25
2018-06-15T04:30:40.459Z,84.99
2018-06-15T04:33:08.939Z,83.38
2018-06-15T04:35:37.404Z,84.73
2018-06-15T04:38:05.891Z,84.70
2018-06-15T04:40:34.359Z,87.55
2018-06-15T04:43:02.825Z,87.82
2018-06-15T04:45:31.367Z,87.40
2018-06-15T04:47:59.767Z,87.83
2018-06-15T04:50:28.176Z,87.37
2018-06-15T04:52:56.626Z,86.93
2018-06-15T04:55:25.119Z,86.39
2018-06-15T04:57:53.735Z,87.31
2018-06-15T05:00:22.128Z,87.07
2018-06-15T05:02:51.672Z,87.31
2018-06-15T05:05:20.107Z,85.83
2018-06-15T05:07:48.507Z,85.60
2018-06-15T05:10:17.190Z,84.96
2018-06-15T05:12:45.683Z,84.71
2018-06-15T05:15:14.194Z,84.66
2018-06-15T05:17:42.715Z,84.52
2018-06-15T05:20:11.167Z,85.01
2018-06-15T05:22:39.707Z,83.00
2018-06-15T05:25:08.099Z,83.37
2018-06-15T05:27:36.503Z,82.33
2018-06-15T05:30:05.799Z,80.89
2018-06-15T05:32:34.203Z,82.03
2018-06-15T05:35:02.676Z,82.58
2018-06-15T05:37:31.123Z,81.04
2018-06-15T05:39:59.616Z,82.24
2018-06-15T05:42:28.078Z,80.25
2018-06-15T05:44:56.514Z,81.84
2018-06-15T05:47:25.394Z,81.57
2018-06-15T05:49:53.913Z,82.56
2018-06-15T05:52:22.286Z,82.81
2018-06-15T05:54:50.747Z,81.97
2018-06-15T05:57:19.175Z,79.32
2018-06-15T05:59:47.763Z,79.87
2018-06-15T06:02:16.191Z,80.92
2018-06-15T06:04:44.659Z,81.00
2018-06-15T06:07:13.179Z,80.24
2018-06-15T06:09:41.671Z,78.71
2018-06-15T06:12:10.431Z,76.50
2018-06-15T06:14:38.865Z,77.47
2018-06-15T06:17:07.335Z,78.46
2018-06-15T06:19:35.764Z,79.47
2018-06-15T06:22:04.285Z,80.69
2018-06-15T06:24:32.755Z,78.86
2018-06-15T06:27:01.230Z,78.24
2018-06-15T06:29:29.702Z,78.35
2018-06-15T06:31:58.375Z,78.98
2018-06-15T06:34:26.837Z,80.88
2018-06-15T06:36:55.312Z,78.48
2018-06-15T06:39:23.831Z,78.94
2018-06-15T06:41:52.275Z,80.70
2018-06-15T06:44:20.796Z,80.53
2018-06-15T06:46:49.208Z,79.74
2018-06-15T06:49:17.843Z,79.31
2018-06-15T06:51:46.395Z,78.79
2018-06-15T06:54:14.951Z,76.00
2018-06-15T06:56:43.499Z,76.38
2018-06-15T06:59:11.926Z,75.76
2018-06-15T07:01:40.782Z,76.87
2018-06-15T07:04:09.304Z,74.66
2018-06-15T07:06:37.724Z,76.58
2018-06-15T07:09:07.487Z,76.67
2018-06-15T07:11:36.377Z,74.54
2018-06-15T07:14:04.957Z,75.39
2018-06-15T07:16:33.448Z,76.17
2018-06-15T07:19:01.843Z,76.04
2018-06-15T07:21:30.399Z,73.44
2018-06-15T07:23:59.183Z,72.46
2018-06-15T07:26:27.832Z,73.41
2018-06-15T07:28:56.331Z,71.70
2018-06-15T07:31:24.719Z,72.70
2018-06-15T07:33:53.247Z,72.11
2018-06-15T07:36:21.735Z,70.64
2018-06-15T07:38:50.407Z,70.97
2018-06-15T07:41:18.915Z,70.64
2018-06-15T07:43:47.475Z,67.70
2018-06-15T07:46:15.943Z,68.82
2018-06-15T07:48:44.375Z,67.75
2018-06-15T07:51:13.064Z,66.32
2018-06-15T07:53:41.487Z,67.05
2018-06-15T07:56:09.881Z,66.60
2018-06-15T07:58:38.383Z,66.09
2018-06-15T08:01:06.843Z,66.18
2018-06-15T08:03:35.548Z,66.91
2018-06-15T08:06:03.971Z,67.09
2018-06-15T08:08:32.435Z,66.73
2018-06-15T08:11:00.948Z,66.98
2018-06-15T08:13:29.483Z,67.53
2018-06-15T08:15:57.960Z,66.57
2018-06-15T08:18:26.367Z,63.56
2018-06-15T08:20:54.751Z,65.11
2018-06-15T08:23:23.201Z,65.75
2018-06-15T08:25:51.690Z,64.33
2018-06-15T08:28:20.159Z,62.69
2018-06-15T08:30:48.575Z,63.82
2018-06-15T08:33:17.071Z,64.32
2018-06-15T08:35:45.490Z,64.43
2018-06-15T08:38:13.884Z,64.81
2018-06-15T08:40:42.363Z,63.77
2018-06-15T08:43:10.783Z,62.93
2018-06-15T08:45:39.271Z,61.20
2018-06-15T08:48:07.718Z,61.40
2018-06-15T08:50:36.134Z,63.38
2018-06-15T08:53:04.727Z,62.31
2018-06-15T08:55:33.199Z,62.00
2018-06-15T08:58:01.659Z,63.06
2018-06-15T09:00:30.067Z,61.74
2018-06-15T09:02:58.475Z,61.89
2018-06-15T09:05:26.887Z,61.78
2018-06-15T09:07:55.397Z,61.45
2018-06-15T09:10:23.944Z,61.05
2018-06-15T09:12:52.366Z,61.98
2018-06-15T09:15:20.850Z,61.87
2018-06-15T09:17:49.240Z,61.06
2018-06-15T09:20:17.791Z,59.25
2018-06-15T09:22:46.616Z,59.80
2018-06-15T09:25:15.152Z,60.67
2018-06-15T09:27:44.684Z,62.49
2018-06-15T09:30:13.183Z,61.43
2018-06-15T09:32:41.590Z,62.41
2018-06-15T09:35:10.027Z,62.66
2018-06-15T09:37:38.435Z,62.73
2018-06-15T09:40:06.921Z,62.72
2018-06-15T09:42:35.423Z,59.52
2018-06-15T09:45:03.871Z,60.52
2018-06-15T09:47:32.576Z,58.84
2018-06-15T09:50:01.016Z,60.05
2018-06-15T09:52:29.537Z,59.10
2018-06-15T09:54:57.939Z,57.25
2018-06-15T09:57:26.388Z,58.87
2018-06-15T09:59:54.816Z,59.03
2018-06-15T10:02:23.260Z,55.33
2018-06-15T10:04:51.667Z,56.69
2018-06-15T10:07:20.172Z,57.86
2018-06-15T10:09:48.571Z,60.64
2018-06-15T10:12:17.616Z,58.73
2018-06-15T10:14:46.168Z,58.92
2018-06-15T10:17:14.631Z,58.08
2018-06-15T10:19:43.092Z,59.75
2018-06-15T10:22:11.502Z,58.04
2018-06-15T10:24:40.061Z,58.94
2018-06-15T10:27:08.464Z,57.03
2018-06-15T10:29:36.893Z,57.09
2018-06-15T10:32:05.673Z,57.80
2018-06-15T10:34:34.063Z,57.93
2018-06-15T10:37:02.967Z,56.36
2018-06-15T10:39:31.467Z,55.74
2018-06-15T10:41:59.888Z,56.95
2018-06-15T10:44:28.335Z,59.03
2018-06-15T10:46:56.780Z,55.30
2018-06-15T10:49:25.448Z,54.82
2018-06-15T10:51:53.932Z,54.65
2018-06-15T10:54:22.379Z,55.49
2018-06-15T10:56:50.879Z,55.22
2018-06-15T10:59:19.343Z,55.07
2018-06-15T11:01:47.774Z,55.80
2018-06-15T11:04:16.179Z,54.54
2018-06-15T11:06:44.711Z,50.26
2018-06-15T11:09:13.224Z,50.47
2018-06-15T11:11:41.985Z,50.29
2018-06-15T11:14:10.680Z,50.75
2018-06-15T11:16:39.110Z,50.03
2018-06-15T11:19:07.585Z,49.68
2018-06-15T11:21:36.127Z,50.22
2018-06-15T11:24:04.555Z,49.98
2018-06-15T11:26:33.000Z,50.76
2018-06-15T11:29:01.423Z,52.19
2018-06-15T11:31:29.811Z,50.13
2018-06-15T11:33:58.274Z,52.54
2018-06-15T11:36:26.663Z,53.46
2018-06-15T11:38:55.246Z,53.28
2018-06-15T11:41:23.624Z,50.77
2018-06-15T11:43:52.174Z,51.31
2018-06-15T11:46:20.660Z,50.17
2018-06-15T11:48:49.120Z,51.94
2018-06-15T11:51:17.794Z,49.00
2018-06-15T11:53:46.343Z,47.66
2018-06-15T11:56:14.811Z,49.59
2018-06-15T11:58:43.332Z,49.70
2018-06-15T12:01:11.795Z,51.21
2018-06-15T12:03:40.563Z,51.46
2018-06-15T12:06:09.091Z,49.60
2018-06-15T12:08:37.572Z,51.00
2018-06-15T12:11:06.064Z,49.50
2018-06-15T12:13:34.515Z,50.68
2018-06-15T12:16:03.239Z,50.70
2018-06-15T12:18:31.650Z,49.22
2018-06-15T12:21:00.051Z,49.67
2018-06-15T12:23:28.448Z,50.65
2018-06-15T12:25:56.954Z,50.05
2018-06-15T12:28:25.703Z,48.81
2018-06-15T12:30:54.363Z,49.17
2018-06-15T12:33:22.862Z,50.37
2018-06-15T12:35:51.371Z,51.20
2018-06-15T12:38:19.794Z,49.81
2018-06-15T12:40:48.487Z,50.08
2018-06-15T12:43:16.998Z,50.18
2018-06-15T12:45:45.443Z,51.20
2018-06-15T12:48:13.818Z,51.19
2018-06-15T12:50:42.218Z,49.80
2018-06-15T12:53:10.664Z,49.83
2018-06-15T12:55:39.088Z,50.46
2018-06-15T12:58:07.504Z,49.45
2018-06-15T13:00:36.012Z,48.85
2018-06-15T13:03:04.480Z,47.70
2018-06-15T13:05:33.008Z,49.79
2018-06-15T13:08:01.483Z,47.49
2018-06-15T13:10:29.907Z,50.36
2018-06-15T13:12:58.375Z,48.86
2018-06-15T13:15:26.799Z,49.23
2018-06-15T13:17:55.791Z,47.57
2018-06-15T13:20:24.314Z,50.73
2018-06-15T13:22:52.787Z,51.61
2018-06-15T13:25:21.212Z,48.15
2018-06-15T13:27:49.796Z,48.61
2018-06-15T13:30:18.304Z,49.15
2018-06-15T13:32:46.805Z,50.61
2018-06-15T13:35:15.167Z,51.31
2018-06-15T13:37:43.699Z,49.50
2018-06-15T13:40:12.200Z,49.67
2018-06-15T13:42:40.729Z,49.94
2018-06-15T13:45:09.136Z,49.57
2018-06-15T13:47:37.679Z,50.54
2018-06-15T13:50:06.294Z,51.13
2018-06-15T13:52:34.757Z,51.56
2018-06-15T13:55:03.495Z,50.57
2018-06-15T13:57:31.947Z,49.50
2018-06-15T14:00:00.431Z,48.68
2018-06-15T14:02:29.075Z,49.90
2018-06-15T14:04:57.546Z,50.29
2018-06-15T14:07:26.075Z,51.03
2018-06-15T14:09:54.451Z,50.19
2018-06-15T14:12:22.999Z,51.37
2018-06-15T14:14:51.491Z,52.20
2018-06-15T14:17:19.971Z,50.67
2018-06-15T14:19:48.875Z,51.49
2018-06-15T14:22:17.392Z,50.51
2018-06-15T14:24:46.106Z,49.02
2018-06-15T14:27:14.536Z,49.97
2018-06-15T14:29:42.951Z,49.40
2018-06-15T14:32:11.456Z,50.08
2018-06-15T14:34:39.873Z,49.29
2018-06-15T14:37:08.260Z,49.92
2018-06-15T14:39:36.735Z,50.94
2018-06-15T14:42:05.222Z,50.77
2018-06-15T14:44:33.659Z,51.89
2018-06-15T14:47:02.118Z,50.84
2018-06-15T14:49:30.549Z,50.01
2018-06-15T14:51:58.963Z,50.75
2018-06-15T14:54:27.392Z,51.46
2018-06-15T14:56:56.065Z,51.22
2018-06-15T14:59:24.435Z,51.69
2018-06-15T15:01:52.851Z,51.40
2018-06-15T15:04:21.475Z,51.59
2018-06-15T15:06:49.936Z,52.19
2018-06-15T15:09:18.387Z,51.77
2018-06-15T15:11:46.823Z,52.45
2018-06-15T15:14:15.239Z,52.94
2018-06-15T15:16:43.753Z,54.94
2018-06-15T15:19:12.246Z,53.42
2018-06-15T15:21:40.883Z,52.08
2018-06-15T15:24:09.400Z,50.83
2018-06-15T15:26:37.812Z,53.90
2018-06-15T15:29:06.356Z,52.67
2018-06-15T15:31:34.779Z,52.78
2018-06-15T15:34:03.219Z,51.50
2018-06-15T15:36:31.700Z,50.84
2018-06-15T15:39:00.156Z,52.23
2018-06-15T15:41:28.585Z,52.28
2018-06-15T15:43:57.039Z,51.79
2018-06-15T15:46:25.819Z,52.96
2018-06-15T15:48:54.427Z,53.43
2018-06-15T15:51:22.934Z,52.97
2018-06-15T15:53:51.475Z,51.73
2018-06-15T15:56:19.940Z,52.11
2018-06-15T15:58:48.602Z,52.48
2018-06-15T16:01:17.023Z,52.04
2018-06-15T16:03:45.506Z,51.84
2018-06-15T16:06:13.935Z,52.24
2018-06-15T16:08:42.407Z,51.09
2018-06-15T16:11:10.903Z,51.46
2018-06-15T16:13:39.395Z,51.28
2018-06-15T16:16:08.545Z,51.28
2018-06-15T16:18:36.947Z,52.96
2018-06-15T16:21:05.375Z,51.87
2018-06-15T16:23:34.363Z,51.43
2018-06-15T16:26:02.811Z,52.63
2018-06-15T16:28:31.421Z,52.57
2018-06-15T16:31:00.007Z,52.57
2018-06-15T16:33:28.472Z,53.21
2018-06-15T16:35:57.448Z,53.43
2018-06-15T16:38:26.007Z,52.67
2018-06-15T16:40:54.402Z,53.52
2018-06-15T16:43:22.995Z,53.10
2018-06-15T16:45:51.419Z,53.24
2018-06-15T16:48:19.872Z,52.50
2018-06-15T16:50:48.272Z,52.93
2018-06-15T16:53:17.011Z,53.48
2018-06-15T16:55:45.447Z,52.80
2018-06-15T16:58:13.995Z,54.21
2018-06-15T17:00:42.441Z,54.68
2018-06-15T17:03:10.961Z,55.12
2018-06-15T17:05:39.411Z,53.90
2018-06-15T17:08:07.938Z,53.31
2018-06-15T17:10:36.384Z,53.46
2018-06-15T17:13:04.927Z,54.18
2018-06-15T17:15:33.335Z,54.07
2018-06-15T17:18:01.801Z,53.36
2018-06-15T17:20:30.287Z,53.73
2018-06-15T17:22:58.766Z,53.60
2018-06-15T17:25:27.399Z,53.89
2018-06-15T17:27:55.888Z,53.04
2018-06-15T17:30:24.311Z,52.39
2018-06-15T17:32:52.727Z,53.33
2018-06-15T17:35:21.223Z,55.97
2018-06-15T17:37:49.839Z,55.37
2018-06-15T17:40:18.461Z,54.54
2018-06-15T17:42:46.852Z,54.11
2018-06-15T17:45:15.331Z,54.95
2018-06-15T17:47:43.829Z,54.53
2018-06-15T17:50:12.475Z,54.72
2018-06-15T17:52:40.983Z,56.22
2018-06-15T17:55:09.523Z,55.38
2018-06-15T17:57:38.043Z,55.02
2018-06-15T18:00:06.942Z,55.85
2018-06-15T18:02:35.875Z,56.81
2018-06-15T18:05:04.400Z,56.84
2018-06-15T18:07:32.899Z,56.42
2018-06-15T18:10:01.389Z,55.66
2018-06-15T18:12:29.899Z,57.08
2018-06-15T18:14:58.738Z,56.18
2018-06-15T18:17:27.622Z,56.49
2018-06-15T18:19:56.075Z,57.05
2018-06-15T18:22:24.480Z,58.15
2018-06-15T18:24:52.967Z,56.04
2018-06-15T18:27:21.927Z,56.18
2018-06-15T18:29:50.387Z,55.37
2018-06-15T18:32:18.859Z,55.68
2018-06-15T18:34:47.351Z,56.82
2018-06-15T18:37:15.843Z,57.26
2018-06-15T18:39:44.504Z,56.83
2018-06-15T18:42:12.931Z,56.69
2018-06-15T18:44:41.431Z,57.52
2018-06-15T18:47:15.711Z,57.24
2018-06-15T18:49:44.152Z,56.66
2018-06-15T18:52:12.676Z,56.02
2018-06-15T18:54:41.178Z,57.12
2018-06-15T18:57:09.611Z,56.53
2018-06-15T18:59:38.031Z,57.63
2018-06-15T19:02:06.463Z,58.15
2018-06-15T19:04:34.895Z,57.53
2018-06-15T19:07:03.426Z,58.10
2018-06-15T19:09:31.883Z,57.52
2018-06-15T19:12:00.515Z,59.36
2018-06-15T19:14:29.059Z,58.33
2018-06-15T19:16:57.499Z,59.59
2018-06-15T19:19:25.967Z,62.60
2018-06-15T19:21:54.507Z,62.92
2018-06-15T19:24:22.984Z,62.99
2018-06-15T19:26:51.461Z,64.60
2018-06-15T19:29:19.883Z,65.37
2018-06-15T19:31:48.264Z,66.63
2018-06-15T19:34:16.727Z,66.37
2018-06-15T19:36:45.158Z,67.84
2018-06-15T19:39:13.548Z,68.72
2018-06-15T19:41:42.032Z,69.83
2018-06-15T19:44:10.544Z,71.24
2018-06-15T19:46:39.095Z,70.68
2018-06-15T19:49:07.588Z,70.56
2018-06-15T19:51:36.251Z,68.44
2018-06-15T19:54:05.356Z,69.75
2018-06-15T19:56:33.757Z,71.42
2018-06-15T19:59:02.289Z,71.23
2018-06-15T20:01:30.688Z,71.44
2018-06-15T20:03:59.196Z,70.62
2018-06-15T20:06:27.947Z,71.30
2018-06-15T20:08:56.366Z,71.45
2018-06-15T20:11:24.745Z,70.78
2018-06-15T20:13:53.284Z,71.30
2018-06-15T20:16:21.699Z,71.29
2018-06-15T20:18:50.430Z,71.56
2018-06-15T20:21:18.923Z,72.35
2018-06-15T20:23:47.436Z,73.22
2018-06-15T20:26:15.952Z,72.35
2018-06-15T20:28:44.347Z,73.10
2018-06-15T20:31:12.788Z,72.03
2018-06-15T20:33:41.231Z,72.14
2018-06-15T20:36:09.774Z,72.23
2018-06-15T20:38:38.210Z,72.03
2018-06-15T20:41:06.987Z,73.07
2018-06-15T20:43:35.527Z,72.42
2018-06-15T20:46:04.040Z,73.32
2018-06-15T20:48:32.452Z,72.08
2018-06-15T20:51:00.991Z,72.78
2018-06-15T20:53:29.507Z,75.66
2018-06-15T20:55:58.139Z,75.91
2018-06-15T20:58:26.834Z,76.66
2018-06-15T21:00:55.395Z,79.36
2018-06-15T21:03:23.843Z,79.72
2018-06-15T21:05:52.327Z,78.66
2018-06-15T21:08:20.884Z,80.48
2018-06-15T21:10:49.351Z,80.03
2018-06-15T21:13:17.803Z,81.50
2018-06-15T21:15:46.199Z,81.27
2018-06-15T21:18:14.732Z,80.46
2018-06-15T21:20:43.262Z,79.91
2018-06-15T21:23:11.688Z,78.56
2018-06-15T21:25:40.200Z,79.39
2018-06-15T21:28:08.627Z,80.05
2018-06-15T21:30:37.111Z,80.27
2018-06-15T21:33:05.647Z,78.59
2018-06-15T21:35:34.207Z,78.80
2018-06-15T21:38:02.668Z,78.22
2018-06-15T21:40:31.143Z,77.18
2018-06-15T21:42:59.653Z,78.93
2018-06-15T21:45:28.308Z,80.05
2018-06-15T21:47:56.723Z,80.54
2018-06-15T21:50:25.241Z,79.67
2018-06-15T21:52:53.731Z,79.69
2018-06-15T21:55:22.222Z,80.57
2018-06-15T21:57:50.863Z,80.44
2018-06-15T22:00:19.299Z,80.53
2018-06-15T22:02:47.788Z,83.41
2018-06-15T22:05:16.315Z,83.87
2018-06-15T22:07:44.792Z,84.02
2018-06-15T22:10:13.555Z,84.45
2018-06-15T22:12:42.023Z,84.98
2018-06-15T22:15:10.459Z,85.12
2018-06-15T22:17:39.035Z,84.96
2018-06-15T22:20:07.559Z,84.86
2018-06-15T22:22:36.236Z,85.69
2018-06-15T22:25:04.687Z,85.36
2018-06-15T22:27:33.135Z,84.20
2018-06-15T22:30:01.562Z,83.58
2018-06-15T22:32:30.039Z,83.33
2018-06-15T22:34:58.867Z,83.25
2018-06-15T22:37:27.249Z,82.23
2018-06-15T22:39:55.706Z,82.39
2018-06-15T22:42:24.411Z,82.72
2018-06-15T22:44:52.890Z,83.02
2018-06-15T22:47:21.335Z,86.67
2018-06-15T22:49:49.787Z,85.55
2018-06-15T22:52:18.306Z,84.74
2018-06-15T22:54:46.804Z,85.34
2018-06-15T22:57:15.260Z,85.48
2018-06-15T22:59:43.970Z,86.61
2018-06-15T23:02:12.480Z,88.49
2018-06-15T23:04:40.996Z,88.32
2018-06-15T23:07:09.475Z,87.62
2018-06-15T23:09:37.947Z,87.88
2018-06-15T23:12:06.416Z,86.21
2018-06-15T23:14:34.865Z,86.85
2018-06-15T23:17:03.327Z,87.58
2018-06-15T23:19:31.863Z,87.71
2018-06-15T23:22:00.317Z,87.84
2018-06-15T23:24:29.607Z,87.88
2018-06-15T23:26:58.008Z,88.35
2018-06-15T23:29:26.516Z,86.91
2018-06-15T23:31:55.039Z,87.88
2018-06-15T23:34:23.463Z,87.63
2018-06-15T23:36:52.003Z,88.96
2018-06-15T23:39:20.514Z,88.72
2018-06-15T23:41:49.159Z,90.57
2018-06-15T23:44:17.551Z,89.66
2018-06-15T23:46:46.087Z,89.68
2018-06-15T23:49:14.575Z,89.54
2018-06-15T23:51:43.055Z,88.61
2018-06-15T23:54:11.871Z,87.86
2018-06-15T23:56:40.354Z,86.28
2018-06-15T23:59:08.873Z,87.59
